createdAt,value
2016-11-29T00:00:33.779Z,-1.65
2016-11-29T00:01:33.820Z,-1.68
2016-11-29T00:02:33.649Z,-1.7
2016-11-29T00:03:33.954Z,-1.7
2016-11-29T00:04:33.751Z,-1.67
2016-11-29T00:05:33.874Z,-1.68
2016-11-29T00:06:33.883Z,-1.74
2016-11-29T00:07:33.932Z,-1.83
2016-11-29T00:08:33.740Z,-1.77
2016-11-29T00:09:33.872Z,-1.71
2016-11-29T00:10:33.622Z,-1.77
2016-11-29T00:11:33.745Z,-1.85
2016-11-29T00:12:33.840Z,-1.72
2016-11-29T00:13:33.796Z,-1.68
2016-11-29T00:14:33.906Z,-1.72
2016-11-29T00:15:33.901Z,-1.71
2016-11-29T00:16:34.021Z,-1.72
2016-11-29T00:17:34.101Z,-1.82
2016-11-29T00:18:33.807Z,-1.78
2016-11-29T00:19:33.893Z,-1.82
2016-11-29T00:20:34.173Z,-1.78
2016-11-29T00:21:33.870Z,-1.75
2016-11-29T00:22:34.113Z,-1.75
2016-11-29T00:23:34.002Z,-1.78
2016-11-29T00:24:33.844Z,-1.77
2016-11-29T00:25:33.749Z,-1.75
2016-11-29T00:26:33.834Z,-1.78
2016-11-29T00:27:33.710Z,-1.72
2016-11-29T00:28:33.770Z,-1.82
2016-11-29T00:29:33.852Z,-1.85
2016-11-29T00:30:33.842Z,-1.78
2016-11-29T00:31:34.333Z,-1.82
2016-11-29T00:32:33.894Z,-1.82
2016-11-29T00:33:33.966Z,-1.83
2016-11-29T00:34:33.901Z,-1.71
2016-11-29T00:35:33.896Z,-1.78
2016-11-29T00:36:33.995Z,-1.8
2016-11-29T00:37:35.033Z,-1.85
2016-11-29T00:38:33.974Z,-1.8
2016-11-29T00:39:34.243Z,-1.75
2016-11-29T00:40:33.964Z,-1.88
2016-11-29T00:41:33.905Z,-1.92
2016-11-29T00:42:33.904Z,-1.96
2016-11-29T00:43:34.381Z,-1.93
2016-11-29T00:44:33.853Z,-1.92
2016-11-29T00:45:34.326Z,-1.92
2016-11-29T00:46:33.817Z,-1.92
2016-11-29T00:47:34.102Z,-1.98
2016-11-29T00:48:33.932Z,-1.9
2016-11-29T00:49:33.953Z,-1.92
2016-11-29T00:50:33.767Z,-1.95
2016-11-29T00:51:33.805Z,-1.9
2016-11-29T00:52:33.727Z,-1.92
2016-11-29T00:53:33.746Z,-1.88
2016-11-29T00:54:34.005Z,-1.8
2016-11-29T00:55:34.162Z,-1.89
2016-11-29T00:56:33.907Z,-1.88
2016-11-29T00:57:33.835Z,-1.93
2016-11-29T00:58:33.980Z,-1.93
2016-11-29T00:59:34.369Z,-1.96
2016-11-29T01:00:33.993Z,-1.9
2016-11-29T01:01:34.422Z,-1.83
2016-11-29T01:02:34.003Z,-1.92
2016-11-29T01:03:44.262Z,-1.96
2016-11-29T01:04:34.082Z,-1.92
2016-11-29T01:05:34.060Z,-1.92
2016-11-29T01:06:34.364Z,-1.86
2016-11-29T01:07:34.082Z,-1.9
2016-11-29T01:08:34.425Z,-2
2016-11-29T01:09:34.384Z,-1.9
2016-11-29T01:10:34.803Z,-1.89
2016-11-29T01:11:35.075Z,-1.98
2016-11-29T01:12:34.595Z,-1.89
2016-11-29T01:13:34.615Z,-1.98
2016-11-29T01:14:35.132Z,-1.96
2016-11-29T01:15:35.962Z,-1.95
2016-11-29T01:16:35.036Z,-1.96
2016-11-29T01:17:35.788Z,-1.96
2016-11-29T01:18:34.704Z,-1.86
2016-11-29T01:19:35.575Z,-1.96
2016-11-29T01:20:34.966Z,-2.01
2016-11-29T01:21:35.170Z,-1.92
2016-11-29T01:22:34.819Z,-1.95
2016-11-29T01:23:34.684Z,-2
2016-11-29T01:24:35.044Z,-2.06
2016-11-29T01:25:34.444Z,-1.95
2016-11-29T01:26:34.449Z,-1.89
2016-11-29T01:27:34.915Z,-1.98
2016-11-29T01:28:34.937Z,-2.01
2016-11-29T01:29:34.659Z,-2.06
2016-11-29T01:30:34.713Z,-2
2016-11-29T01:31:34.654Z,-2.04
2016-11-29T01:32:35.064Z,-2.04
2016-11-29T01:33:35.214Z,-2.07
2016-11-29T01:34:34.751Z,-2.03
2016-11-29T01:35:34.676Z,-2.06
2016-11-29T01:36:34.832Z,-2.01
2016-11-29T01:37:34.674Z,-2.03
2016-11-29T01:38:35.099Z,-2.08
2016-11-29T01:39:36.448Z,-2.04
2016-11-29T01:40:34.421Z,-2.08
2016-11-29T01:41:35.178Z,-2.07
2016-11-29T01:42:34.477Z,-2.14
2016-11-29T01:43:34.887Z,-2.06
2016-11-29T01:44:34.982Z,-2.08
2016-11-29T01:45:35.415Z,-2.08
2016-11-29T01:46:35.860Z,-2.03
2016-11-29T01:47:34.234Z,-2.14
2016-11-29T01:48:35.642Z,-2.1
2016-11-29T01:49:35.298Z,-2.1
2016-11-29T01:50:34.156Z,-2.11
2016-11-29T01:51:34.991Z,-2.18
2016-11-29T01:52:34.424Z,-2.21
2016-11-29T01:53:34.741Z,-2.24
2016-11-29T01:54:34.602Z,-2.25
2016-11-29T01:55:35.070Z,-2.13
2016-11-29T01:56:34.512Z,-2.19
2016-11-29T01:57:35.370Z,-2.16
2016-11-29T01:58:35.018Z,-2.19
2016-11-29T01:59:34.602Z,-2.26
2016-11-29T02:00:35.709Z,-2.26
2016-11-29T02:01:34.429Z,-2.28
2016-11-29T02:02:34.303Z,-2.14
2016-11-29T02:03:34.750Z,-2.22
2016-11-29T02:04:34.616Z,-2.21
2016-11-29T02:05:34.503Z,-2.24
2016-11-29T02:06:34.645Z,-2.21
2016-11-29T02:07:34.295Z,-2.18
2016-11-29T02:08:34.960Z,-2.21
2016-11-29T02:09:34.250Z,-2.24
2016-11-29T02:10:36.650Z,-2.19
2016-11-29T02:11:35.659Z,-2.18
2016-11-29T02:12:36.354Z,-2.25
2016-11-29T02:13:35.029Z,-2.16
2016-11-29T02:14:36.709Z,-2.18
2016-11-29T02:15:34.510Z,-2.18
2016-11-29T02:16:36.397Z,-2.19
2016-11-29T02:17:35.445Z,-2.14
2016-11-29T02:18:37.121Z,-2.24
2016-11-29T02:19:34.705Z,-2.26
2016-11-29T02:20:35.050Z,-2.24
2016-11-29T02:21:35.241Z,-2.26
2016-11-29T02:22:47.087Z,-2.26
2016-11-29T02:23:35.019Z,-2.26
2016-11-29T02:24:35.187Z,-2.26
2016-11-29T02:25:34.573Z,-2.25
2016-11-29T02:26:34.086Z,-2.32
2016-11-29T02:27:34.595Z,-2.26
2016-11-29T02:28:34.436Z,-2.26
2016-11-29T02:29:34.220Z,-2.4
2016-11-29T02:30:34.719Z,-2.29
2016-11-29T02:31:34.534Z,-2.26
2016-11-29T02:32:34.664Z,-2.28
2016-11-29T02:33:35.045Z,-2.24
2016-11-29T02:34:35.040Z,-2.21
2016-11-29T02:35:35.100Z,-2.32
2016-11-29T02:36:35.503Z,-2.29
2016-11-29T02:37:35.098Z,-2.22
2016-11-29T02:38:34.606Z,-2.24
2016-11-29T02:39:35.249Z,-2.22
2016-11-29T02:40:36.361Z,-2.24
2016-11-29T02:41:34.587Z,-2.24
2016-11-29T02:42:34.475Z,-2.21
2016-11-29T02:43:35.060Z,-2.37
2016-11-29T02:44:34.965Z,-2.35
2016-11-29T02:45:34.727Z,-2.41
2016-11-29T02:46:35.126Z,-2.32
2016-11-29T02:47:36.422Z,-2.37
2016-11-29T02:48:35.757Z,-2.37
2016-11-29T02:49:34.920Z,-2.35
2016-11-29T02:50:35.302Z,-2.43
2016-11-29T02:51:35.528Z,-2.28
2016-11-29T02:52:35.881Z,-2.33
2016-11-29T02:53:35.880Z,-2.37
2016-11-29T02:54:34.529Z,-2.4
2016-11-29T02:55:34.199Z,-2.37
2016-11-29T02:56:34.576Z,-2.37
2016-11-29T02:57:34.930Z,-2.32
2016-11-29T02:58:35.268Z,-2.44
2016-11-29T02:59:36.002Z,-2.4
2016-11-29T03:00:35.169Z,-2.35
2016-11-29T03:01:34.926Z,-2.46
2016-11-29T03:02:34.755Z,-2.5
2016-11-29T03:03:36.430Z,-2.47
2016-11-29T03:04:34.761Z,-2.5
2016-11-29T03:05:34.680Z,-2.44
2016-11-29T03:06:34.566Z,-2.41
2016-11-29T03:07:34.448Z,-2.46
2016-11-29T03:08:35.415Z,-2.48
2016-11-29T03:09:34.832Z,-2.47
2016-11-29T03:10:35.038Z,-2.43
2016-11-29T03:11:34.744Z,-2.48
2016-11-29T03:12:35.136Z,-2.48
2016-11-29T03:13:35.851Z,-2.55
2016-11-29T03:14:35.559Z,-2.56
2016-11-29T03:15:36.387Z,-2.62
2016-11-29T03:16:35.235Z,-2.56
2016-11-29T03:17:36.342Z,-2.48
2016-11-29T03:18:35.495Z,-2.51
2016-11-29T03:19:34.749Z,-2.48
2016-11-29T03:20:35.002Z,-2.53
2016-11-29T03:21:34.387Z,-2.58
2016-11-29T03:22:34.273Z,-2.62
2016-11-29T03:23:35.078Z,-2.48
2016-11-29T03:24:34.601Z,-2.61
2016-11-29T03:25:34.859Z,-2.55
2016-11-29T03:26:35.103Z,-2.59
2016-11-29T03:27:34.922Z,-2.58
2016-11-29T03:28:34.462Z,-2.61
2016-11-29T03:29:34.488Z,-2.51
2016-11-29T03:30:34.660Z,-2.64
2016-11-29T03:31:34.264Z,-2.53
2016-11-29T03:32:34.809Z,-2.55
2016-11-29T03:33:34.391Z,-2.64
2016-11-29T03:34:35.079Z,-2.58
2016-11-29T03:35:34.643Z,-2.58
2016-11-29T03:36:35.001Z,-2.56
2016-11-29T03:37:34.845Z,-2.55
2016-11-29T03:38:34.768Z,-2.58
2016-11-29T03:39:35.866Z,-2.59
2016-11-29T03:40:35.519Z,-2.64
2016-11-29T03:41:35.731Z,-2.55
2016-11-29T03:42:34.454Z,-2.65
2016-11-29T03:43:35.579Z,-2.64
2016-11-29T03:44:35.710Z,-2.55
2016-11-29T03:45:35.940Z,-2.59
2016-11-29T03:46:35.755Z,-2.65
2016-11-29T03:47:36.276Z,-2.71
2016-11-29T03:48:34.855Z,-2.69
2016-11-29T03:49:35.544Z,-2.71
2016-11-29T03:50:35.307Z,-2.72
2016-11-29T03:51:34.365Z,-2.68
2016-11-29T03:52:35.302Z,-2.71
2016-11-29T03:53:34.851Z,-2.77
2016-11-29T03:54:34.733Z,-2.74
2016-11-29T03:55:40.889Z,-2.69
2016-11-29T03:56:35.023Z,-2.74
2016-11-29T03:57:35.642Z,-2.65
2016-11-29T03:58:34.615Z,-2.72
2016-11-29T03:59:34.874Z,-2.69
2016-11-29T04:00:35.842Z,-2.69
2016-11-29T04:01:35.241Z,-2.68
2016-11-29T04:02:35.401Z,-2.74
2016-11-29T04:03:34.403Z,-2.79
2016-11-29T04:04:35.659Z,-2.76
2016-11-29T04:05:35.504Z,-2.72
2016-11-29T04:06:35.026Z,-2.68
2016-11-29T04:07:34.788Z,-2.8
2016-11-29T04:08:34.530Z,-2.82
2016-11-29T04:09:34.747Z,-2.8
2016-11-29T04:10:34.919Z,-2.76
2016-11-29T04:11:35.173Z,-2.76
2016-11-29T04:12:34.567Z,-2.83
2016-11-29T04:13:36.217Z,-2.77
2016-11-29T04:14:34.589Z,-2.76
2016-11-29T04:15:35.152Z,-2.82
2016-11-29T04:16:35.594Z,-2.68
2016-11-29T04:17:35.233Z,-2.71
2016-11-29T04:18:34.553Z,-2.79
2016-11-29T04:19:35.031Z,-2.77
2016-11-29T04:20:34.389Z,-2.74
2016-11-29T04:21:34.539Z,-2.83
2016-11-29T04:22:34.260Z,-2.86
2016-11-29T04:23:34.525Z,-2.83
2016-11-29T04:24:34.530Z,-2.87
2016-11-29T04:25:35.143Z,-2.82
2016-11-29T04:26:35.462Z,-2.95
2016-11-29T04:27:35.140Z,-2.93
2016-11-29T04:28:34.158Z,-2.79
2016-11-29T04:29:34.832Z,-2.84
2016-11-29T04:30:34.661Z,-2.9
2016-11-29T04:31:35.257Z,-2.93
2016-11-29T04:32:35.273Z,-2.86
2016-11-29T04:33:34.639Z,-2.9
2016-11-29T04:34:34.412Z,-2.98
2016-11-29T04:35:35.054Z,-2.86
2016-11-29T04:36:35.080Z,-3
2016-11-29T04:37:35.405Z,-2.95
2016-11-29T04:38:35.146Z,-2.93
2016-11-29T04:39:34.982Z,-2.9
2016-11-29T04:40:36.575Z,-2.83
2016-11-29T04:41:35.154Z,-2.9
2016-11-29T04:42:34.752Z,-2.98
2016-11-29T04:43:34.313Z,-2.87
2016-11-29T04:44:34.280Z,-2.89
2016-11-29T04:45:34.169Z,-2.98
2016-11-29T04:46:34.007Z,-2.9
2016-11-29T04:47:34.007Z,-2.98
2016-11-29T04:48:34.032Z,-3
2016-11-29T04:53:03.187Z,-3.02
2016-11-29T04:54:03.185Z,-3.01
2016-11-29T04:55:03.014Z,-3.07
2016-11-29T04:56:03.277Z,-3
2016-11-29T04:57:02.959Z,-3.04
2016-11-29T04:58:03.003Z,-3.01
2016-11-29T04:59:03.228Z,-3.04
2016-11-29T05:00:03.395Z,-3.04
2016-11-29T05:01:03.392Z,-3.04
2016-11-29T05:02:03.304Z,-3.01
2016-11-29T05:03:03.454Z,-2.98
2016-11-29T05:04:03.264Z,-3.05
2016-11-29T05:05:03.422Z,-2.97
2016-11-29T05:06:03.210Z,-3.01
2016-11-29T05:07:03.163Z,-2.98
2016-11-29T05:08:03.738Z,-3
2016-11-29T05:09:03.405Z,-3.07
2016-11-29T05:10:03.100Z,-3.1
2016-11-29T05:11:03.139Z,-3.13
2016-11-29T05:12:03.276Z,-3.08
2016-11-29T05:13:03.259Z,-3.21
2016-11-29T05:14:03.135Z,-3.02
2016-11-29T05:15:03.540Z,-3.18
2016-11-29T05:16:03.765Z,-3.22
2016-11-29T05:17:03.708Z,-3.19
2016-11-29T05:18:03.347Z,-3.16
2016-11-29T05:19:03.583Z,-3.1
2016-11-29T05:20:02.991Z,-3.21
2016-11-29T05:21:03.374Z,-3.19
2016-11-29T05:22:03.782Z,-3.16
2016-11-29T05:23:03.305Z,-3.15
2016-11-29T05:24:04.226Z,-3.21
2016-11-29T05:25:03.610Z,-3.13
2016-11-29T05:26:03.130Z,-3.12
2016-11-29T05:27:03.345Z,-3.21
2016-11-29T05:28:04.118Z,-3.18
2016-11-29T05:29:03.445Z,-3.21
2016-11-29T05:30:03.619Z,-3.21
2016-11-29T05:31:03.709Z,-3.15
2016-11-29T05:32:03.711Z,-3.19
2016-11-29T05:33:05.303Z,-3.18
2016-11-29T05:34:04.236Z,-3.16
2016-11-29T05:35:03.744Z,-3.18
2016-11-29T05:36:03.535Z,-3.16
2016-11-29T05:37:04.312Z,-3.12
2016-11-29T05:38:03.862Z,-3.05
2016-11-29T05:39:05.003Z,-3.15
2016-11-29T05:40:05.931Z,-3.02
2016-11-29T05:41:04.415Z,-3.1
2016-11-29T05:42:04.637Z,-3.01
2016-11-29T05:43:05.355Z,-3.18
2016-11-29T05:44:04.319Z,-3.19
2016-11-29T05:45:04.191Z,-3.08
2016-11-29T05:46:04.093Z,-3.23
2016-11-29T05:47:04.128Z,-3.21
2016-11-29T05:48:03.318Z,-3.22
2016-11-29T05:49:04.100Z,-3.16
2016-11-29T05:50:03.613Z,-3.19
2016-11-29T05:51:04.862Z,-3.1
2016-11-29T05:52:05.158Z,-3.21
2016-11-29T05:53:04.617Z,-3.18
2016-11-29T05:54:04.737Z,-3.18
2016-11-29T05:55:04.141Z,-3.15
2016-11-29T05:56:04.361Z,-3.21
2016-11-29T05:57:04.011Z,-3.13
2016-11-29T05:58:04.387Z,-3.15
2016-11-29T05:59:04.061Z,-3.16
2016-11-29T06:00:04.710Z,-3.16
2016-11-29T06:01:04.741Z,-3.16
2016-11-29T06:02:03.722Z,-3.18
2016-11-29T06:03:04.853Z,-3.18
2016-11-29T06:04:05.757Z,-3.23
2016-11-29T06:05:05.489Z,-3.18
2016-11-29T06:06:04.900Z,-3.23
2016-11-29T06:07:03.972Z,-3.18
2016-11-29T06:08:03.825Z,-3.19
2016-11-29T06:09:04.093Z,-3.19
2016-11-29T06:10:04.191Z,-3.21
2016-11-29T06:11:03.805Z,-3.18
2016-11-29T06:12:04.906Z,-3.22
2016-11-29T06:13:03.515Z,-3.18
2016-11-29T06:14:04.173Z,-3.19
2016-11-29T06:15:04.359Z,-3.21
2016-11-29T06:16:04.836Z,-3.22
2016-11-29T06:17:04.918Z,-3.23
2016-11-29T06:18:03.660Z,-3.22
2016-11-29T06:19:04.010Z,-3.19
2016-11-29T06:20:03.942Z,-3.16
2016-11-29T06:21:04.843Z,-3.23
2016-11-29T06:22:04.069Z,-3.21
2016-11-29T06:23:03.811Z,-3.22
2016-11-29T06:24:04.181Z,-3.25
2016-11-29T06:25:04.192Z,-3.18
2016-11-29T06:26:03.846Z,-3.19
2016-11-29T06:27:03.859Z,-3.26
2016-11-29T06:28:03.714Z,-3.19
2016-11-29T06:29:03.843Z,-3.26
2016-11-29T06:30:04.429Z,-3.21
2016-11-29T06:31:03.924Z,-3.28
2016-11-29T06:32:03.811Z,-3.28
2016-11-29T06:33:05.276Z,-3.23
2016-11-29T06:34:04.228Z,-3.26
2016-11-29T06:35:04.051Z,-3.19
2016-11-29T06:36:04.128Z,-3.3
2016-11-29T06:37:04.511Z,-3.22
2016-11-29T06:38:03.508Z,-3.3
2016-11-29T06:39:04.858Z,-3.25
2016-11-29T06:40:03.669Z,-3.26
2016-11-29T06:41:04.586Z,-3.34
2016-11-29T06:42:05.509Z,-3.34
2016-11-29T06:43:03.973Z,-3.37
2016-11-29T06:44:03.428Z,-3.31
2016-11-29T06:45:04.223Z,-3.34
2016-11-29T06:46:03.259Z,-3.39
2016-11-29T06:47:03.382Z,-3.33
2016-11-29T06:48:03.037Z,-3.34
2016-11-29T06:49:03.422Z,-3.31
2016-11-29T06:50:03.645Z,-3.31
2016-11-29T06:51:03.571Z,-3.33
2016-11-29T06:52:03.276Z,-3.37
2016-11-29T06:53:03.615Z,-3.37
2016-11-29T06:54:05.222Z,-3.34
2016-11-29T06:55:04.080Z,-3.34
2016-11-29T06:56:03.243Z,-3.34
2016-11-29T06:57:03.636Z,-3.33
2016-11-29T06:58:03.569Z,-3.39
2016-11-29T06:59:03.481Z,-3.31
2016-11-29T07:00:03.759Z,-3.25
2016-11-29T07:01:05.597Z,-3.23
2016-11-29T07:02:03.698Z,-3.28
2016-11-29T07:03:03.626Z,-3.36
2016-11-29T07:04:08.141Z,-3.37
2016-11-29T07:08:38.188Z,-3.39
2016-11-29T07:09:38.015Z,-3.33
2016-11-29T07:10:38.210Z,-3.33
2016-11-29T07:11:38.189Z,-3.37
2016-11-29T07:12:37.985Z,-3.34
2016-11-29T07:13:38.350Z,-3.39
2016-11-29T07:14:37.795Z,-3.34
2016-11-29T07:15:37.671Z,-3.33
2016-11-29T07:16:37.748Z,-3.36
2016-11-29T07:17:37.729Z,-3.3
2016-11-29T07:18:37.805Z,-3.4
2016-11-29T07:19:37.775Z,-3.41
2016-11-29T07:20:37.865Z,-3.3
2016-11-29T07:21:37.847Z,-3.25
2016-11-29T07:22:38.438Z,-3.3
2016-11-29T07:23:38.230Z,-3.3
2016-11-29T07:24:38.044Z,-3.28
2016-11-29T07:25:38.660Z,-3.26
2016-11-29T07:26:38.100Z,-3.28
2016-11-29T07:27:37.930Z,-3.23
2016-11-29T07:28:38.316Z,-3.26
2016-11-29T07:29:37.885Z,-3.25
2016-11-29T07:30:38.173Z,-3.25
2016-11-29T07:31:38.237Z,-3.22
2016-11-29T07:32:38.005Z,-3.18
2016-11-29T07:33:38.332Z,-3.25
2016-11-29T07:34:38.253Z,-3.23
2016-11-29T07:35:38.384Z,-3.25
2016-11-29T07:36:37.966Z,-3.23
2016-11-29T07:37:38.066Z,-3.22
2016-11-29T07:38:38.431Z,-3.19
2016-11-29T07:39:38.522Z,-3.13
2016-11-29T07:40:38.451Z,-3.18
2016-11-29T07:41:37.953Z,-3.21
2016-11-29T07:42:38.648Z,-3.13
2016-11-29T07:43:38.196Z,-3.19
2016-11-29T07:44:38.095Z,-3.19
2016-11-29T07:45:37.874Z,-3.19
2016-11-29T07:46:38.116Z,-3.16
2016-11-29T07:47:38.106Z,-3.01
2016-11-29T07:48:38.094Z,-3.01
2016-11-29T07:49:38.161Z,-3.04
2016-11-29T07:50:38.169Z,-3.02
2016-11-29T07:51:39.635Z,-3
2016-11-29T07:52:38.329Z,-3.04
2016-11-29T07:53:37.761Z,-2.98
2016-11-29T07:54:37.952Z,-3.04
2016-11-29T07:55:38.255Z,-3.04
2016-11-29T07:56:38.067Z,-3.02
2016-11-29T07:57:38.238Z,-2.97
2016-11-29T07:58:37.873Z,-2.98
2016-11-29T07:59:37.973Z,-2.95
2016-11-29T08:00:38.112Z,-2.97
2016-11-29T08:01:37.703Z,-2.98
2016-11-29T08:02:37.786Z,-3.02
2016-11-29T08:03:37.962Z,-2.87
2016-11-29T08:04:38.051Z,-2.84
2016-11-29T08:05:38.088Z,-2.77
2016-11-29T08:06:38.377Z,-2.86
2016-11-29T08:07:38.123Z,-2.89
2016-11-29T08:08:38.077Z,-2.74
2016-11-29T08:09:37.984Z,-2.66
2016-11-29T08:10:38.308Z,-2.68
2016-11-29T08:11:38.001Z,-2.62
2016-11-29T08:12:38.177Z,-2.62
2016-11-29T08:13:38.178Z,-2.58
2016-11-29T08:14:38.087Z,-2.51
2016-11-29T08:15:37.946Z,-2.47
2016-11-29T08:16:37.976Z,-2.4
2016-11-29T08:17:38.278Z,-2.44
2016-11-29T08:18:38.319Z,-2.41
2016-11-29T08:19:38.377Z,-2.43
2016-11-29T08:20:37.737Z,-2.26
2016-11-29T08:21:37.982Z,-2.26
2016-11-29T08:22:38.845Z,-2.11
2016-11-29T08:23:38.086Z,-2.06
2016-11-29T08:24:38.327Z,-2.11
2016-11-29T08:25:37.931Z,-1.92
2016-11-29T08:26:38.152Z,-2.04
2016-11-29T08:27:37.788Z,-1.95
2016-11-29T08:28:38.047Z,-1.78
2016-11-29T08:29:38.336Z,-1.75
2016-11-29T08:30:37.998Z,-1.74
2016-11-29T08:31:38.111Z,-1.7
2016-11-29T08:32:38.178Z,-1.61
2016-11-29T08:33:38.429Z,-1.56
2016-11-29T08:34:37.937Z,-1.57
2016-11-29T08:35:37.936Z,-1.53
2016-11-29T08:36:38.643Z,-1.43
2016-11-29T08:37:38.822Z,-1.49
2016-11-29T08:38:38.491Z,-1.44
2016-11-29T08:39:37.717Z,-1.28
2016-11-29T08:40:39.885Z,-1.25
2016-11-29T08:41:39.081Z,-1.23
2016-11-29T08:42:39.381Z,-1.2
2016-11-29T08:43:39.060Z,-1.1
2016-11-29T08:44:39.678Z,-1
2016-11-29T08:45:39.367Z,-0.96
2016-11-29T08:46:39.035Z,-0.99
2016-11-29T08:47:39.733Z,-0.81
2016-11-29T08:48:39.425Z,-0.73
2016-11-29T08:49:39.693Z,-0.67
2016-11-29T08:50:39.468Z,-0.59
2016-11-29T08:51:40.611Z,-0.6
2016-11-29T08:52:40.040Z,-0.49
2016-11-29T08:53:39.785Z,-0.45
2016-11-29T08:54:39.489Z,-0.44
2016-11-29T08:55:40.249Z,-0.24
2016-11-29T08:56:41.375Z,-0.26
2016-11-29T08:57:40.290Z,-0.13
2016-11-29T08:58:40.442Z,-0.03
2016-11-29T08:59:39.018Z,0.02
2016-11-29T09:00:39.362Z,0.04
2016-11-29T09:01:41.089Z,0.12
2016-11-29T09:02:40.558Z,0.19
2016-11-29T09:03:40.835Z,0.19
2016-11-29T09:04:41.915Z,0.26
2016-11-29T09:05:47.372Z,0.34
2016-11-29T09:06:39.777Z,0.51
2016-11-29T09:07:42.301Z,0.38
2016-11-29T09:08:39.255Z,0.52
2016-11-29T09:09:39.774Z,0.49
2016-11-29T09:10:40.053Z,0.52
2016-11-29T09:11:39.785Z,0.6
2016-11-29T09:12:40.903Z,0.62
2016-11-29T09:13:39.714Z,0.68
2016-11-29T09:14:40.119Z,0.7
2016-11-29T09:15:41.856Z,0.75
2016-11-29T09:16:40.811Z,0.77
2016-11-29T09:17:39.378Z,0.92
2016-11-29T09:18:39.956Z,0.98
2016-11-29T09:19:39.655Z,1.06
2016-11-29T09:20:40.533Z,1.17
2016-11-29T09:21:39.738Z,1.28
2016-11-29T09:22:39.769Z,1.49
2016-11-29T09:23:39.937Z,1.5
2016-11-29T09:24:40.278Z,1.57
2016-11-29T09:25:40.539Z,1.63
2016-11-29T09:26:40.296Z,1.79
2016-11-29T09:27:40.703Z,1.95
2016-11-29T09:28:39.799Z,1.92
2016-11-29T09:29:40.874Z,2.05
2016-11-29T09:30:41.512Z,2.29
2016-11-29T09:31:40.098Z,2.44
2016-11-29T09:32:39.634Z,2.59
2016-11-29T09:33:41.379Z,3.04
2016-11-29T09:34:41.830Z,3.45
2016-11-29T09:35:46.905Z,3.8
2016-11-29T09:36:40.983Z,4.14
2016-11-29T09:37:41.488Z,4.38
2016-11-29T09:38:40.318Z,4.59
2016-11-29T09:39:40.093Z,4.9
2016-11-29T09:40:40.909Z,5.05
2016-11-29T09:41:40.619Z,5.15
2016-11-29T09:42:40.109Z,5.23
2016-11-29T09:43:40.476Z,5.3
2016-11-29T09:44:40.683Z,5.55
2016-11-29T09:45:40.031Z,5.66
2016-11-29T09:46:40.840Z,5.73
2016-11-29T09:47:40.827Z,5.96
2016-11-29T09:48:40.438Z,6.01
2016-11-29T09:49:40.244Z,6.08
2016-11-29T09:50:40.516Z,6.2
2016-11-29T09:51:39.949Z,6.27
2016-11-29T09:52:39.437Z,6.39
2016-11-29T09:53:40.134Z,6.43
2016-11-29T09:54:39.956Z,6.69
2016-11-29T09:55:39.435Z,6.83
2016-11-29T09:56:39.229Z,6.96
2016-11-29T09:57:39.203Z,6.96
2016-11-29T09:58:39.466Z,6.91
2016-11-29T09:59:39.546Z,6.94
2016-11-29T10:00:39.556Z,6.91
2016-11-29T10:01:39.359Z,6.76
2016-11-29T10:02:39.553Z,6.2
2016-11-29T10:03:39.898Z,5.87
2016-11-29T10:04:40.928Z,5.3
2016-11-29T10:05:40.089Z,5.15
2016-11-29T10:06:39.441Z,5.01
2016-11-29T10:07:39.763Z,4.77
2016-11-29T10:08:39.693Z,4.8
2016-11-29T10:09:39.743Z,5.05
2016-11-29T10:10:39.923Z,5.17
2016-11-29T10:11:44.279Z,5.15
2016-11-29T10:12:40.867Z,5.27
2016-11-29T10:13:40.594Z,5.23
2016-11-29T10:14:45.849Z,5.02
2016-11-29T10:15:42.771Z,4.69
2016-11-29T10:16:44.342Z,4.69
2016-11-29T10:17:43.769Z,4.39
2016-11-29T10:18:46.418Z,4.21
2016-11-29T10:19:42.287Z,4.07
2016-11-29T10:20:40.062Z,3.88
2016-11-29T10:21:40.345Z,3.96
2016-11-29T10:22:40.947Z,3.92
2016-11-29T10:23:40.486Z,3.8
2016-11-29T10:24:41.234Z,3.75
2016-11-29T10:25:40.141Z,3.52
2016-11-29T10:26:40.141Z,3.57
2016-11-29T10:27:41.151Z,3.68
2016-11-29T10:28:41.085Z,3.57
2016-11-29T10:29:40.173Z,3.56
2016-11-29T10:30:40.591Z,3.37
2016-11-29T10:31:39.745Z,3.54
2016-11-29T10:32:39.747Z,3.52
2016-11-29T10:33:40.297Z,3.34
2016-11-29T10:34:40.827Z,3.28
2016-11-29T10:35:41.993Z,3.33
2016-11-29T10:36:39.849Z,3.23
2016-11-29T10:37:39.971Z,3.28
2016-11-29T10:38:39.694Z,3.3
2016-11-29T10:39:39.968Z,3.23
2016-11-29T10:40:40.096Z,3.2
2016-11-29T10:41:39.907Z,3.16
2016-11-29T10:42:40.010Z,3.23
2016-11-29T10:43:41.481Z,3.12
2016-11-29T10:44:41.013Z,3.08
2016-11-29T10:45:40.224Z,3.07
2016-11-29T10:46:40.325Z,3.07
2016-11-29T10:47:40.971Z,3.13
2016-11-29T10:48:40.600Z,3.1
2016-11-29T10:49:39.853Z,3.04
2016-11-29T10:50:40.615Z,2.98
2016-11-29T10:51:40.128Z,3.05
2016-11-29T10:52:40.685Z,2.95
2016-11-29T10:53:40.376Z,2.99
2016-11-29T10:54:40.048Z,3.02
2016-11-29T10:55:40.086Z,2.97
2016-11-29T10:56:40.369Z,3.02
2016-11-29T10:57:39.485Z,3.05
2016-11-29T10:58:40.494Z,3.1
2016-11-29T10:59:40.172Z,3.25
2016-11-29T11:00:40.365Z,3.33
2016-11-29T11:01:40.261Z,3.42
2016-11-29T11:02:40.039Z,3.52
2016-11-29T11:03:41.027Z,3.54
2016-11-29T11:04:39.913Z,3.56
2016-11-29T11:05:40.134Z,3.95
2016-11-29T11:06:41.547Z,4.21
2016-11-29T11:07:39.882Z,4.49
2016-11-29T11:08:39.575Z,4.83
2016-11-29T11:09:41.705Z,5.04
2016-11-29T11:10:40.698Z,5.29
2016-11-29T11:11:43.716Z,5.45
2016-11-29T11:12:39.619Z,5.63
2016-11-29T11:13:43.633Z,5.65
2016-11-29T11:14:40.256Z,5.84
2016-11-29T11:15:41.841Z,6.11
2016-11-29T11:16:40.737Z,6.14
2016-11-29T11:17:40.372Z,6.17
2016-11-29T11:18:41.013Z,6.17
2016-11-29T11:19:40.923Z,6.2
2016-11-29T11:20:41.702Z,6.36
2016-11-29T11:21:41.380Z,6.43
2016-11-29T11:22:40.462Z,6.46
2016-11-29T11:23:40.256Z,6.55
2016-11-29T11:24:39.756Z,6.55
2016-11-29T11:25:39.728Z,6.73
2016-11-29T11:26:39.496Z,6.6
2016-11-29T11:27:40.541Z,6.63
2016-11-29T11:28:41.158Z,6.48
2016-11-29T11:29:40.075Z,6.54
2016-11-29T11:30:39.631Z,6.48
2016-11-29T11:31:39.512Z,6.54
2016-11-29T11:32:39.679Z,6.71
2016-11-29T11:33:39.949Z,6.58
2016-11-29T11:34:40.634Z,6.6
2016-11-29T11:35:39.835Z,6.78
2016-11-29T11:36:39.919Z,6.64
2016-11-29T11:37:39.471Z,6.58
2016-11-29T11:38:39.021Z,6.45
2016-11-29T11:39:39.750Z,6.5
2016-11-29T11:40:39.378Z,6.5
2016-11-29T11:41:42.854Z,6.46
2016-11-29T11:42:39.186Z,6.58
2016-11-29T11:43:40.033Z,6.54
2016-11-29T11:44:39.391Z,6.45
2016-11-29T11:45:41.050Z,6.55
2016-11-29T11:46:39.684Z,6.72
2016-11-29T11:47:39.721Z,6.53
2016-11-29T11:48:40.722Z,6.73
2016-11-29T11:49:41.503Z,6.73
2016-11-29T11:50:39.880Z,6.99
2016-11-29T11:51:39.878Z,7.01
2016-11-29T11:52:40.200Z,7.18
2016-11-29T11:53:39.400Z,7.07
2016-11-29T11:54:40.852Z,7.34
2016-11-29T11:55:40.289Z,7.24
2016-11-29T11:56:40.530Z,7.42
2016-11-29T11:57:41.929Z,7.42
2016-11-29T11:58:41.298Z,7.55
2016-11-29T11:59:41.549Z,7.55
2016-11-29T12:00:40.284Z,7.58
2016-11-29T12:01:39.606Z,7.44
2016-11-29T12:02:39.076Z,7.51
2016-11-29T12:03:39.834Z,7.63
2016-11-29T12:04:39.053Z,7.52
2016-11-29T12:05:41.122Z,7.55
2016-11-29T12:06:40.155Z,7.45
2016-11-29T12:07:40.841Z,7.41
2016-11-29T12:08:41.466Z,7.5
2016-11-29T12:09:40.766Z,7.5
2016-11-29T12:10:40.092Z,7.33
2016-11-29T12:11:40.189Z,7.27
2016-11-29T12:12:40.239Z,7.41
2016-11-29T12:13:45.213Z,7.19
2016-11-29T12:14:39.871Z,7.09
2016-11-29T12:15:41.452Z,7.09
2016-11-29T12:16:40.757Z,7.15
2016-11-29T12:17:40.556Z,7.14
2016-11-29T12:18:40.331Z,7.01
2016-11-29T12:19:40.631Z,6.93
2016-11-29T12:20:43.618Z,6.93
2016-11-29T12:21:39.439Z,6.96
2016-11-29T12:22:40.286Z,7.04
2016-11-29T12:23:43.710Z,6.86
2016-11-29T12:24:40.405Z,7.01
2016-11-29T12:25:40.051Z,6.9
2016-11-29T12:26:39.929Z,6.93
2016-11-29T12:27:39.714Z,7.07
2016-11-29T12:28:40.151Z,7.05
2016-11-29T12:29:39.782Z,7.07
2016-11-29T12:30:40.369Z,7.36
2016-11-29T12:31:39.899Z,7.45
2016-11-29T12:32:39.900Z,7.39
2016-11-29T12:33:39.557Z,7.23
2016-11-29T12:34:40.224Z,7.27
2016-11-29T12:35:40.328Z,7.39
2016-11-29T12:36:40.361Z,7.58
2016-11-29T12:37:40.023Z,7.54
2016-11-29T12:38:39.900Z,7.54
2016-11-29T12:39:39.959Z,7.55
2016-11-29T12:40:41.745Z,7.63
2016-11-29T12:41:41.940Z,7.67
2016-11-29T12:42:40.201Z,7.67
2016-11-29T12:43:41.503Z,7.66
2016-11-29T12:44:40.853Z,7.55
2016-11-29T12:45:40.660Z,7.5
2016-11-29T12:46:40.647Z,7.5
2016-11-29T12:47:42.058Z,7.52
2016-11-29T12:48:40.458Z,7.52
2016-11-29T12:49:40.479Z,7.6
2016-11-29T12:50:40.627Z,7.44
2016-11-29T12:51:40.978Z,7.55
2016-11-29T12:52:42.132Z,7.47
2016-11-29T12:53:40.416Z,7.58
2016-11-29T12:54:41.321Z,7.55
2016-11-29T12:55:40.122Z,7.48
2016-11-29T12:56:40.363Z,7.54
2016-11-29T12:57:39.623Z,7.67
2016-11-29T12:58:41.246Z,7.63
2016-11-29T12:59:41.526Z,7.66
2016-11-29T13:00:42.126Z,7.74
2016-11-29T13:01:40.515Z,7.63
2016-11-29T13:02:40.321Z,7.62
2016-11-29T13:03:39.942Z,7.58
2016-11-29T13:04:41.927Z,7.62
2016-11-29T13:05:40.664Z,7.52
2016-11-29T13:06:39.748Z,7.7
2016-11-29T13:07:39.801Z,7.63
2016-11-29T13:08:39.217Z,7.7
2016-11-29T13:09:39.839Z,7.74
2016-11-29T13:10:40.154Z,7.7